Time;durP1;ratioP1;P1;durP2;ratioP2;P2;SDS_P1;SDS_P2;PMS_P1;PMS_P2;Temp;Humidity;BMP_temperature;BMP_pressure;BME280_temperature;BME280_humidity;BME280_pressure;Samples;Min_cycle;Max_cycle;Signal;HPM_P1;HPM_P2
2022/07/24 00:00:41;;;;;;;9.10;8.07;;;27.40;63.10;;;27.75;42.56;98924.56;5043731;27;123172;-74
2022/07/24 00:03:08;;;;;;;9.93;7.77;;;27.40;63.00;;;27.70;42.59;98919.34;5042872;27;123721;-74
2022/07/24 00:05:34;;;;;;;10.37;8.53;;;27.30;63.10;;;27.67;42.53;98931.56;5030629;27;110021;-74
2022/07/24 00:08:01;;;;;;;9.43;7.80;;;27.30;63.20;;;27.63;42.46;98928.00;5042501;27;110321;-73
2022/07/24 00:10:27;;;;;;;9.90;7.93;;;27.30;63.20;;;27.59;42.33;98933.69;5028704;27;124385;-74
2022/07/24 00:12:54;;;;;;;9.07;7.60;;;27.20;63.00;;;27.54;42.76;98934.97;5030302;27;123911;-74
2022/07/24 00:15:20;;;;;;;8.53;6.53;;;27.20;63.00;;;27.52;42.69;98925.28;5050258;27;108553;-74
2022/07/24 00:17:47;;;;;;;8.60;7.37;;;27.20;63.00;;;27.48;42.78;98930.19;5031412;27;109478;-74
2022/07/24 00:20:13;;;;;;;8.80;6.97;;;27.10;62.90;;;27.43;42.32;98925.81;5031053;27;124129;-73
2022/07/24 00:22:40;;;;;;;10.47;7.60;;;27.10;63.00;;;27.42;42.68;98924.16;5048885;27;123688;-73
2022/07/24 00:25:07;;;;;;;7.43;6.43;;;27.00;63.10;;;27.41;42.69;98931.09;5042331;27;109567;-73
2022/07/24 00:27:34;;;;;;;9.80;7.57;;;27.00;63.20;;;27.40;42.35;98928.66;5035491;27;109460;-73
2022/07/24 00:30:01;;;;;;;8.23;7.40;;;27.00;63.20;;;27.38;42.70;98914.09;5040820;27;123550;-73
2022/07/24 00:32:27;;;;;;;8.50;6.70;;;27.00;63.20;;;27.35;42.97;98920.59;5037312;27;122870;-73
2022/07/24 00:34:54;;;;;;;9.10;7.40;;;27.00;63.30;;;27.33;42.89;98917.41;5052687;27;109164;-71
2022/07/24 00:37:20;;;;;;;7.53;6.80;;;26.90;63.40;;;27.31;43.06;98915.78;5036629;27;108703;-73
2022/07/24 00:39:47;;;;;;;8.00;7.20;;;26.90;63.60;;;27.30;43.12;98922.69;5045932;27;124179;-73
2022/07/24 00:42:14;;;;;;;8.13;7.33;;;26.90;63.60;;;27.29;43.14;98923.91;5046969;27;124050;-74
2022/07/24 00:44:40;;;;;;;8.20;7.10;;;26.90;63.80;;;27.28;42.99;98927.97;5033685;27;109163;-73
2022/07/24 00:47:07;;;;;;;7.27;6.53;;;26.90;63.90;;;27.26;42.74;98919.09;5036807;27;107958;-73
2022/07/24 00:49:33;;;;;;;8.27;7.40;;;26.90;63.90;;;27.26;43.33;98923.97;5046627;27;123986;-74
2022/07/24 00:52:00;;;;;;;9.40;7.80;;;26.90;64.00;;;27.26;42.84;98923.97;5039309;27;123924;-73
2022/07/24 00:54:27;;;;;;;11.23;8.33;;;26.80;64.10;;;27.26;43.21;98923.97;5036735;27;110781;-73
2022/07/24 00:56:54;;;;;;;10.60;7.87;;;26.80;64.30;;;27.27;43.14;98929.22;5042854;27;109972;-73
2022/07/24 00:59:21;;;;;;;9.87;7.17;;;26.80;64.50;;;27.28;43.05;98932.84;5049319;27;124045;-73
2022/07/24 01:01:49;;;;;;;8.63;7.33;;;26.80;64.50;;;27.26;43.36;98924.75;5043416;27;124009;-73
2022/07/24 01:04:17;;;;;;;12.33;7.70;;;26.80;64.70;;;27.23;43.72;98919.94;5045634;27;109029;-73
2022/07/24 01:06:44;;;;;;;10.40;7.50;;;26.80;65.00;;;27.23;43.94;98921.97;5050514;27;109022;-73
2022/07/24 01:09:11;;;;;;;10.97;8.50;;;26.80;65.30;;;27.21;44.09;98927.25;5045266;27;123311;-73
2022/07/24 01:11:41;;;;;;;9.33;7.77;;;26.80;65.50;;;27.20;43.66;98922.81;5042408;27;124849;-73
2022/07/24 01:14:09;;;;;;;13.40;8.37;;;26.70;65.60;;;27.18;43.74;98928.09;5040460;27;109190;-73
2022/07/24 01:16:36;;;;;;;10.50;8.70;;;26.70;65.70;;;27.16;44.17;98919.97;5034531;27;108879;-73
2022/07/24 01:19:04;;;;;;;9.70;8.10;;;26.80;65.90;;;27.15;44.22;98923.25;5038073;27;124179;-74
2022/07/24 01:21:30;;;;;;;9.10;7.43;;;26.80;66.30;;;27.14;44.60;98928.13;5036612;27;123935;-73
2022/07/24 01:23:57;;;;;;;9.80;8.20;;;26.70;66.40;;;27.12;44.32;98924.91;5045850;27;109243;-73
2022/07/24 01:26:23;;;;;;;10.03;8.10;;;26.70;66.60;;;27.11;44.58;98923.28;5046740;27;109195;-73
2022/07/24 01:28:50;;;;;;;10.63;7.70;;;26.70;66.70;;;27.10;44.64;98916.00;5044090;27;124091;-73
2022/07/24 01:31:16;;;;;;;10.97;8.40;;;26.60;66.70;;;27.09;44.28;98925.75;5030475;27;123906;-73
2022/07/24 01:33:43;;;;;;;9.20;7.63;;;26.60;66.80;;;27.07;44.32;98922.50;5043036;27;108504;-74
2022/07/24 01:36:09;;;;;;;10.20;8.07;;;26.60;67.00;;;27.04;44.75;98927.00;5044888;27;109780;-73
2022/07/24 01:38:36;;;;;;;11.23;8.70;;;26.60;67.10;;;27.05;44.93;98930.63;5049094;27;124161;-73
2022/07/24 01:41:03;;;;;;;9.80;8.47;;;26.60;67.30;;;27.03;44.75;98933.09;5048865;27;123137;-72
2022/07/24 01:43:29;;;;;;;12.70;9.20;;;26.60;67.40;;;27.02;45.03;98937.94;5045211;27;110361;-72
2022/07/24 01:45:56;;;;;;;10.77;8.70;;;26.60;68.30;;;27.01;44.88;98929.88;5040195;27;109119;-71
2022/07/24 01:48:22;;;;;;;11.07;9.10;;;26.50;67.70;;;26.98;45.29;98925.84;5045290;27;124212;-73
2022/07/24 01:50:49;;;;;;;10.70;9.57;;;26.50;67.80;;;26.95;45.43;98929.53;5050125;27;123776;-73
2022/07/24 01:53:15;;;;;;;10.07;8.83;;;26.50;68.00;;;26.88;45.15;98924.72;5050111;27;109295;-72
2022/07/24 01:55:42;;;;;;;12.70;9.27;;;26.40;68.30;;;26.80;45.64;98928.84;5041751;27;108992;-73
2022/07/24 01:58:09;;;;;;;10.50;8.90;;;26.40;68.60;;;26.74;45.46;98924.84;5047641;27;124660;-71
2022/07/24 02:00:35;;;;;;;12.00;8.80;;;26.30;68.70;;;26.71;45.51;98931.38;5044441;27;123845;-73
2022/07/24 02:03:02;;;;;;;15.83;9.90;;;26.30;69.00;;;26.70;45.85;98929.75;5044698;27;109873;-73
2022/07/24 02:05:29;;;;;;;10.40;8.23;;;26.30;69.20;;;26.67;45.92;98922.06;5031424;27;107996;-73
2022/07/24 02:07:58;;;;;;;10.27;9.17;;;26.30;69.40;;;26.60;46.50;98922.97;5052030;27;124536;-73
2022/07/24 02:10:27;;;;;;;14.00;10.03;;;26.20;69.80;;;26.56;46.40;98927.03;5044443;27;124176;-73
2022/07/24 02:12:55;;;;;;;11.80;10.13;;;26.10;70.00;;;26.50;46.17;98918.16;5043443;27;109493;-73
2022/07/24 02:15:22;;;;;;;11.53;9.10;;;26.10;70.10;;;26.48;46.43;98916.97;5037634;27;109626;-73
2022/07/24 02:17:51;;;;;;;11.83;9.83;;;26.10;71.00;;;26.41;46.88;98921.47;5036463;27;124537;-71
2022/07/24 02:20:19;;;;;;;10.40;9.30;;;26.00;70.70;;;26.38;46.64;98921.47;5031227;27;123633;-73
2022/07/24 02:22:46;;;;;;;11.20;9.97;;;26.00;71.00;;;26.33;46.73;98919.91;5045798;27;110085;-73
2022/07/24 02:25:13;;;;;;;11.30;9.90;;;25.90;71.20;;;26.30;47.28;98920.72;5039350;27;110344;-71
2022/07/24 02:27:40;;;;;;;12.77;9.93;;;25.90;71.50;;;26.28;46.88;98923.19;5047018;27;123949;-73
2022/07/24 02:30:15;;;;;;;10.93;9.80;;;25.90;71.70;;;26.28;47.20;98913.88;5044393;27;122844;-72
2022/07/24 02:32:41;;;;;;;11.70;9.23;;;25.90;72.00;;;26.28;47.63;98923.19;5049601;27;110346;-72
2022/07/24 02:35:09;;;;;;;10.17;9.17;;;25.90;72.10;;;26.28;47.38;98928.84;5051115;27;109921;-71
2022/07/24 02:37:41;;;;;;;11.23;9.03;;;25.90;72.30;;;26.27;47.75;98926.41;5042702;27;124288;-71
2022/07/24 02:40:10;;;;;;;12.07;9.77;;;25.90;72.40;;;26.26;47.29;98931.28;5048617;27;123901;-71
2022/07/24 02:42:37;;;;;;;11.77;9.97;;;25.80;72.50;;;26.27;47.85;98929.25;5054199;27;108787;-73
2022/07/24 02:45:06;;;;;;;9.87;8.60;;;25.90;72.80;;;26.26;48.11;98931.28;5040765;27;109751;-74
2022/07/24 02:47:33;;;;;;;11.63;10.00;;;25.90;73.00;;;26.26;48.03;98931.28;5047072;27;123283;-72
2022/07/24 02:49:59;;;;;;;11.47;10.27;;;25.90;73.10;;;26.26;47.99;98919.94;5031149;27;123801;-72
2022/07/24 02:52:26;;;;;;;13.73;10.33;;;25.90;73.20;;;26.25;47.71;98918.34;5049162;27;109406;-72
2022/07/24 02:54:52;;;;;;;11.07;9.50;;;25.90;73.40;;;26.26;47.58;98931.28;5050158;27;110486;-72
2022/07/24 02:57:19;;;;;;;12.30;9.33;;;25.80;73.50;;;26.26;47.98;98925.63;5045356;27;124124;-72
2022/07/24 02:59:49;;;;;;;15.10;11.17;;;25.80;73.60;;;26.25;47.77;98924.03;5038661;27;123502;-73
2022/07/24 03:02:16;;;;;;;12.30;10.20;;;25.80;73.70;;;26.23;48.26;98918.75;5051328;27;109733;-72
2022/07/24 03:04:43;;;;;;;11.90;10.20;;;25.80;73.90;;;26.25;47.70;98924.03;5035278;27;110117;-72
2022/07/24 03:07:10;;;;;;;10.80;9.70;;;25.80;74.00;;;26.22;47.93;98925.66;5047702;27;124122;-72
2022/07/24 03:09:37;;;;;;;11.27;9.87;;;25.80;74.10;;;26.22;48.03;98925.66;5044625;27;123530;-72
2022/07/24 03:12:03;;;;;;;12.97;10.60;;;25.80;74.10;;;26.23;48.24;98926.44;5052560;27;108877;-72
2022/07/24 03:14:30;;;;;;;13.27;11.00;;;25.70;74.10;;;26.22;48.03;98931.31;5049633;27;109736;-72
2022/07/24 03:16:56;;;;;;;12.00;9.00;;;25.80;74.30;;;26.22;48.09;98925.66;5030006;27;123342;-72
2022/07/24 03:19:23;;;;;;;12.47;10.03;;;25.80;74.30;;;26.23;47.30;98929.28;5045087;27;123601;-72
2022/07/24 03:21:49;;;;;;;10.40;9.40;;;25.70;74.10;;;26.22;47.45;98930.50;5038184;27;110083;-72
2022/07/24 03:24:16;;;;;;;8.73;7.80;;;25.70;73.70;;;26.19;47.32;98926.50;5048107;27;110190;-72
2022/07/24 03:26:43;;;;;;;7.93;7.20;;;25.70;73.50;;;26.17;47.11;98922.47;5049658;27;124233;-72
2022/07/24 03:29:10;;;;;;;10.97;9.73;;;25.70;73.50;;;26.16;47.35;98937.81;5043108;27;123409;-72
2022/07/24 03:31:37;;;;;;;13.87;10.63;;;25.70;73.70;;;26.14;47.30;98924.09;5046808;27;108995;-72
2022/07/24 03:34:05;;;;;;;10.37;9.33;;;25.70;74.00;;;26.12;47.79;98928.56;5039836;27;110300;-72
2022/07/24 03:36:32;;;;;;;12.27;10.40;;;25.70;74.30;;;26.09;47.79;98932.22;5051330;27;124265;-72
2022/07/24 03:38:59;;;;;;;15.57;9.77;;;25.70;74.60;;;26.07;48.20;98931.81;5048484;27;123677;-72
2022/07/24 03:41:25;;;;;;;12.57;10.40;;;25.60;74.80;;;26.06;48.03;98927.34;5050484;27;108420;-72
2022/07/24 03:43:52;;;;;;;10.60;8.77;;;25.60;75.00;;;26.04;48.41;98935.50;5040526;27;108307;-72
2022/07/24 03:46:18;;;;;;;12.30;9.90;;;25.60;75.00;;;26.02;48.41;98943.59;5050788;27;123345;-72
2022/07/24 03:48:45;;;;;;;11.27;10.03;;;25.60;75.10;;;26.01;48.05;98931.47;5043386;27;124467;-72
2022/07/24 03:51:11;;;;;;;9.70;8.03;;;25.60;75.00;;;25.99;48.27;98937.53;5054643;27;109253;-72
2022/07/24 03:53:38;;;;;;;13.80;9.73;;;25.50;75.00;;;25.98;47.87;98938.75;5048556;27;108188;-72
2022/07/24 03:56:09;;;;;;;10.70;9.50;;;25.60;75.10;;;25.97;48.02;98942.78;5055234;27;124256;-72
2022/07/24 03:58:37;;;;;;;17.13;8.70;;;25.50;74.90;;;25.97;48.00;98939.94;5050073;27;122906;-72
2022/07/24 04:01:03;;;;;;;9.33;8.27;;;25.50;74.90;;;25.98;47.58;98938.75;5054524;27;108540;-72
2022/07/24 04:03:30;;;;;;;8.77;7.87;;;25.50;74.90;;;25.99;47.51;98945.22;5050479;27;108041;-72
2022/07/24 04:05:56;;;;;;;8.70;7.80;;;25.50;74.80;;;25.97;47.68;98948.44;5040119;27;124135;-72
2022/07/24 04:08:23;;;;;;;10.20;8.70;;;25.50;74.70;;;25.97;47.73;98942.78;5047999;27;123618;-71
2022/07/24 04:10:49;;;;;;;10.20;8.10;;;25.50;75.30;;;25.97;47.41;98951.28;5038308;27;109917;-72
2022/07/24 04:13:16;;;;;;;9.50;7.97;;;25.50;74.50;;;25.97;47.07;98953.31;5048984;27;109962;-72
2022/07/24 04:15:42;;;;;;;9.07;7.67;;;25.50;74.50;;;25.96;47.03;98952.50;5049275;27;123468;-72
2022/07/24 04:18:09;;;;;;;11.40;8.20;;;25.50;74.40;;;25.95;47.36;98956.56;5040849;27;122878;-73
2022/07/24 04:20:35;;;;;;;12.37;7.90;;;25.50;74.40;;;25.93;47.22;98959.00;5037885;27;109610;-72
2022/07/24 04:23:02;;;;;;;8.80;7.90;;;25.50;74.40;;;25.93;47.48;98958.19;5049179;27;109523;-72
2022/07/24 04:25:28;;;;;;;13.43;8.70;;;25.50;74.60;;;25.94;47.08;98960.59;5040247;27;124046;-72
2022/07/24 04:27:55;;;;;;;9.83;8.83;;;25.50;74.70;;;25.96;47.55;98966.66;5043133;27;123164;-72
2022/07/24 04:30:21;;;;;;;9.43;8.13;;;25.50;74.70;;;25.97;47.32;98964.63;5042945;27;109089;-73
2022/07/24 04:32:48;;;;;;;10.03;8.17;;;25.50;74.70;;;25.97;47.19;98968.25;5044895;27;109341;-72
2022/07/24 04:35:14;;;;;;;9.70;8.20;;;25.50;74.80;;;25.98;47.11;98969.09;5045312;27;124022;-73
2022/07/24 04:37:41;;;;;;;18.27;9.37;;;25.50;74.90;;;25.96;47.24;98963.84;5047049;27;123869;-72
2022/07/24 04:40:08;;;;;;;12.70;8.87;;;25.50;74.70;;;25.94;47.18;98959.78;5044446;27;109358;-72
2022/07/24 04:42:34;;;;;;;10.10;8.60;;;25.40;74.40;;;25.91;47.06;98969.91;5046594;27;109078;-72
2022/07/24 04:45:01;;;;;;;10.13;8.87;;;25.50;74.50;;;25.89;47.36;98963.84;5043281;27;124051;-72
2022/07/24 04:47:27;;;;;;;10.93;9.20;;;25.40;74.50;;;25.90;47.08;98964.66;5045120;27;123585;-72
2022/07/24 04:49:54;;;;;;;9.03;7.33;;;25.40;74.60;;;25.91;47.01;98967.09;5044441;27;109262;-72
2022/07/24 04:52:20;;;;;;;12.03;8.60;;;25.40;74.70;;;25.93;46.94;98970.31;5046455;27;108914;-72
2022/07/24 04:54:47;;;;;;;11.00;8.90;;;25.40;74.50;;;25.93;46.78;98978.00;5047598;27;124229;-72
2022/07/24 04:57:14;;;;;;;10.97;8.50;;;25.40;74.10;;;25.88;46.83;98967.91;5040870;27;124094;-72
2022/07/24 04:59:40;;;;;;;9.83;8.03;;;25.40;74.10;;;25.86;46.82;98981.66;5049647;27;109213;-72
2022/07/24 05:02:07;;;;;;;8.70;7.80;;;25.30;74.00;;;25.83;46.52;98973.97;5041575;27;110002;-72
2022/07/24 05:04:34;;;;;;;8.57;6.73;;;25.30;73.90;;;25.82;46.51;98972.38;5047133;27;123971;-72
2022/07/24 05:07:03;;;;;;;10.50;8.93;;;25.30;74.00;;;25.81;46.78;98976.41;5046467;27;123810;-72
2022/07/24 05:09:29;;;;;;;8.50;7.70;;;25.30;73.90;;;25.83;46.42;98978.84;5040877;27;108377;-72
2022/07/24 05:11:56;;;;;;;8.60;7.70;;;25.30;73.80;;;25.84;46.54;98981.28;5042860;27;108143;-72
2022/07/24 05:14:22;;;;;;;9.93;8.83;;;25.30;73.90;;;25.87;46.85;98986.13;5043473;27;123947;-72
2022/07/24 05:16:49;;;;;;;9.87;8.07;;;25.40;74.10;;;25.90;46.45;98992.97;5048736;27;124833;-72
2022/07/24 05:19:16;;;;;;;11.23;8.77;;;25.40;74.20;;;25.92;46.82;98993.38;5047292;27;108263;-73
2022/07/24 05:21:43;;;;;;;11.70;8.30;;;25.40;74.10;;;25.91;46.96;98983.28;5039545;27;108548;-73
2022/07/24 05:24:09;;;;;;;11.30;9.57;;;25.40;74.10;;;25.90;46.33;98988.13;5029091;27;122402;-73
2022/07/24 05:26:36;;;;;;;14.17;8.90;;;25.30;73.80;;;25.83;46.74;98982.47;5044454;27;124431;-72
2022/07/24 05:29:07;;;;;;;10.13;9.03;;;25.30;74.00;;;25.82;46.67;98986.53;5046614;27;109323;-72
2022/07/24 05:31:34;;;;;;;9.43;7.80;;;25.30;74.20;;;25.84;46.87;98984.09;5037951;27;109533;-72
2022/07/24 05:34:04;;;;;;;10.23;8.80;;;25.30;74.40;;;25.87;47.11;98988.97;5047168;27;124378;-73
2022/07/24 05:36:30;;;;;;;10.83;9.17;;;25.30;74.50;;;25.89;46.73;98985.72;5043038;27;124559;-72
2022/07/24 05:38:57;;;;;;;10.13;8.70;;;25.30;74.60;;;25.90;47.05;98982.47;5050018;27;108531;-73
2022/07/24 05:41:23;;;;;;;10.40;8.87;;;25.30;74.60;;;25.94;47.02;98982.44;5042914;27;109164;-73
2022/07/24 05:43:49;;;;;;;14.20;9.60;;;25.40;74.60;;;25.96;47.04;98980.81;5040943;27;123984;-73
2022/07/24 05:46:16;;;;;;;14.43;8.20;;;25.40;74.60;;;26.01;46.55;98979.59;5050250;27;123050;-73
2022/07/24 05:48:42;;;;;;;11.40;8.53;;;25.50;74.70;;;26.06;46.52;98976.34;5042655;27;109612;-73
2022/07/24 05:51:09;;;;;;;10.90;8.33;;;25.50;74.60;;;26.09;46.57;98977.53;5047317;27;110348;-73
2022/07/24 05:53:35;;;;;;;10.00;8.67;;;25.50;74.70;;;26.13;46.38;98967.78;5049639;27;123334;-73
2022/07/24 05:56:03;;;;;;;12.60;9.10;;;25.60;74.70;;;26.20;46.68;98975.44;5047479;27;123916;-73
2022/07/24 05:58:30;;;;;;;11.47;9.07;;;25.60;74.50;;;26.28;46.60;98973.38;5043722;27;108915;-73
2022/07/24 06:00:56;;;;;;;9.23;8.33;;;25.70;74.50;;;26.36;46.16;98972.91;5030777;27;109078;-73
2022/07/24 06:03:22;;;;;;;11.07;8.10;;;25.70;74.50;;;26.41;46.10;98978.13;5034907;27;123809;-73
2022/07/24 06:05:49;;;;;;;10.40;8.97;;;25.80;74.40;;;26.49;45.85;98972.41;5034664;27;123015;-73
2022/07/24 06:08:16;;;;;;;9.40;8.20;;;25.90;74.30;;;26.55;45.64;98976.44;5031997;27;108404;-72
2022/07/24 06:10:43;;;;;;;13.50;8.57;;;25.90;74.10;;;26.65;45.87;98981.22;5040096;27;109148;-73
2022/07/24 06:13:09;;;;;;;7.80;7.00;;;26.00;73.90;;;26.71;45.64;98967.41;5029108;27;123652;-73
2022/07/24 06:15:36;;;;;;;9.07;6.90;;;26.00;73.50;;;26.76;45.22;98976.28;5030249;27;123846;-73
2022/07/24 06:18:03;;;;;;;9.40;8.30;;;26.10;73.20;;;26.81;44.99;98973.00;5034795;27;109194;-73
2022/07/24 06:20:30;;;;;;;9.13;7.53;;;26.20;73.20;;;26.92;45.28;98972.06;5044911;27;108168;-73
2022/07/24 06:22:56;;;;;;;10.07;8.63;;;26.30;73.20;;;26.99;45.23;98975.66;5048717;27;124550;-73
2022/07/24 06:25:23;;;;;;;11.93;8.80;;;26.30;73.00;;;27.08;44.63;98972.31;5050635;27;123686;-73
2022/07/24 06:27:50;;;;;;;10.33;8.23;;;26.40;72.90;;;27.15;44.90;98980.78;5046949;27;108931;-73
2022/07/24 06:30:24;;;;;;;9.00;8.10;;;26.50;72.70;;;27.16;44.14;98981.56;5039564;27;109107;-73
2022/07/24 06:32:54;;;;;;;8.90;7.83;;;26.50;72.20;;;27.17;44.17;98984.03;5049053;27;124621;-73
2022/07/24 06:35:22;;;;;;;13.03;7.60;;;26.50;71.80;;;27.20;43.89;98980.34;5049754;27;124161;-73
2022/07/24 06:37:48;;;;;;;8.60;7.80;;;26.50;71.40;;;27.23;43.78;98982.34;5047268;27;108640;-73
2022/07/24 06:40:17;;;;;;;12.43;7.70;;;26.60;70.90;;;27.25;43.64;98977.06;5047845;27;109842;-73
2022/07/24 06:42:46;;;;;;;9.00;7.80;;;26.60;70.80;;;27.28;43.56;98972.59;5043249;27;124005;-73
2022/07/24 06:45:13;;;;;;;13.23;8.53;;;26.60;70.70;;;27.33;43.41;98974.97;5046183;27;124009;-73
2022/07/24 06:47:41;;;;;;;9.30;7.60;;;26.70;70.70;;;27.38;43.59;98968.00;5042682;27;109416;-74
2022/07/24 06:50:08;;;;;;;10.13;7.73;;;26.70;70.70;;;27.47;43.55;98971.16;5047177;27;108740;-74
2022/07/24 06:52:35;;;;;;;8.93;7.40;;;26.80;70.80;;;27.56;43.66;98964.97;5040160;27;124192;-73
2022/07/24 06:55:02;;;;;;;10.73;8.67;;;26.90;71.00;;;27.63;43.35;98965.69;5036804;27;125041;-74
2022/07/24 06:57:28;;;;;;;9.67;7.80;;;26.90;70.80;;;27.70;43.35;98964.78;5043884;27;109691;-73
2022/07/24 06:59:55;;;;;;;7.93;7.13;;;27.00;70.70;;;27.76;43.43;98958.22;5040333;27;108928;-74
2022/07/24 07:02:22;;;;;;;11.00;8.97;;;27.00;70.70;;;27.85;43.27;98959.78;5043548;27;124034;-73
2022/07/24 07:04:49;;;;;;;9.10;7.20;;;27.10;70.40;;;27.91;42.87;98961.69;5044870;27;122582;-73
2022/07/24 07:07:17;;;;;;;9.20;8.30;;;27.20;70.20;;;27.98;42.61;98964.44;5041616;27;108512;-73
2022/07/24 07:09:43;;;;;;;9.93;8.17;;;27.30;70.00;;;28.09;42.92;98963.50;5042432;27;108730;-73
2022/07/24 07:12:10;;;;;;;9.40;7.80;;;27.30;70.00;;;28.18;42.45;98958.09;5039375;27;124047;-73
2022/07/24 07:14:37;;;;;;;9.93;8.93;;;27.40;69.60;;;28.21;42.18;98954.41;5041775;27;123666;-73
2022/07/24 07:17:06;;;;;;;10.00;8.10;;;27.50;69.20;;;28.24;42.24;98964.91;5046796;27;110333;-73
2022/07/24 07:19:32;;;;;;;10.40;8.37;;;27.50;69.10;;;28.28;42.43;98959.97;5042028;27;108250;-72
2022/07/24 07:21:59;;;;;;;9.00;8.10;;;27.50;69.20;;;28.34;42.38;98963.13;5040346;27;124145;-73
2022/07/24 07:24:26;;;;;;;10.00;8.20;;;27.60;69.30;;;28.39;42.35;98959.81;5041030;27;123640;-73
2022/07/24 07:26:52;;;;;;;9.57;8.57;;;27.70;69.30;;;28.39;41.99;98954.94;5048526;27;110558;-73
2022/07/24 07:29:19;;;;;;;15.73;9.23;;;27.70;68.70;;;28.38;42.04;98956.16;5046299;27;109534;-73
2022/07/24 07:31:45;;;;;;;8.60;7.80;;;27.70;68.60;;;28.42;41.80;98964.63;5033454;27;123051;-73
2022/07/24 07:34:12;;;;;;;8.03;7.23;;;27.70;68.40;;;28.46;41.96;98964.63;5044989;27;123969;-72
2022/07/24 07:36:38;;;;;;;9.03;8.13;;;27.70;68.20;;;28.51;41.63;98958.47;5041795;27;109749;-72
2022/07/24 07:39:04;;;;;;;9.43;8.07;;;27.80;68.20;;;28.55;41.94;98959.19;5044317;27;108843;-72
2022/07/24 07:41:31;;;;;;;9.60;7.80;;;27.90;68.30;;;28.56;42.10;98958.78;5032936;27;123970;-72
2022/07/24 07:43:58;;;;;;;10.77;9.63;;;27.90;68.50;;;28.59;42.36;98957.91;5036077;27;123029;-72
2022/07/24 07:46:25;;;;;;;10.37;8.57;;;27.90;68.80;;;28.63;42.29;98963.53;5035972;27;109928;-72
2022/07/24 07:48:53;;;;;;;9.57;8.57;;;27.90;68.80;;;28.67;42.46;98960.63;5038201;27;109048;-72
2022/07/24 07:51:20;;;;;;;10.00;8.90;;;28.00;68.90;;;28.70;42.32;98963.41;5041058;27;124368;-72
2022/07/24 07:53:46;;;;;;;9.70;8.50;;;28.00;68.80;;;28.75;42.05;98968.63;5039105;27;123061;-72
2022/07/24 07:56:13;;;;;;;9.83;7.80;;;28.10;68.80;;;28.74;41.50;98969.03;5033536;27;109182;-72
2022/07/24 07:58:39;;;;;;;10.10;8.80;;;28.10;68.10;;;28.70;41.45;98968.31;5045789;27;108577;-72
2022/07/24 08:01:06;;;;;;;11.00;8.37;;;28.00;67.70;;;28.71;41.53;98965.03;5033545;27;125290;-72
2022/07/24 08:03:32;;;;;;;8.97;8.07;;;28.00;67.60;;;28.78;41.26;98964.13;5034340;27;123556;-72
2022/07/24 08:06:01;;;;;;;8.47;7.57;;;28.10;67.20;;;28.80;40.53;98964.47;5038060;27;114327;-72
2022/07/24 08:08:27;;;;;;;9.63;8.10;;;28.10;66.40;;;28.82;40.53;98973.38;5038776;27;113965;-72
2022/07/24 08:10:54;;;;;;;8.63;7.40;;;28.10;66.20;;;28.85;40.29;98969.66;5029775;27;124031;-72
2022/07/24 08:13:21;;;;;;;10.47;8.60;;;28.10;65.80;;;28.87;39.95;98961.50;5029260;27;123049;-72
2022/07/24 08:15:47;;;;;;;10.13;8.57;;;28.20;65.50;;;28.91;39.79;98962.25;5034597;27;115124;-72
2022/07/24 08:18:14;;;;;;;7.00;6.30;;;28.20;65.00;;;28.96;40.11;98967.47;5030374;27;114878;-72
2022/07/24 08:20:40;;;;;;;7.90;6.97;;;28.30;65.20;;;29.02;39.92;98962.88;5041195;27;123871;-72
2022/07/24 08:23:07;;;;;;;9.40;8.00;;;28.30;64.90;;;29.09;39.56;98952.63;5041600;27;124539;-73
2022/07/24 08:25:33;;;;;;;8.17;6.77;;;28.40;64.30;;;29.11;39.10;98953.00;5044866;27;114436;-72
2022/07/24 08:28:00;;;;;;;8.20;7.40;;;28.40;63.90;;;29.16;39.63;98943.97;5037707;27;114498;-73
2022/07/24 08:30:26;;;;;;;10.07;8.10;;;28.50;64.30;;;29.22;39.05;98942.22;5036021;27;123250;-73
2022/07/24 08:32:53;;;;;;;8.23;7.40;;;28.50;63.90;;;29.25;39.29;98947.03;5036995;27;124079;-72
2022/07/24 08:35:20;;;;;;;8.40;6.83;;;28.60;63.40;;;29.30;38.50;98949.38;5040347;27;114383;-73
2022/07/24 08:37:47;;;;;;;8.30;7.50;;;28.60;62.90;;;29.30;38.55;98943.69;5046442;27;113003;-73
2022/07/24 08:40:14;;;;;;;9.90;7.23;;;28.60;62.60;;;29.33;38.73;98939.16;5035367;27;124254;-73
2022/07/24 08:42:41;;;;;;;7.20;6.47;;;28.70;62.70;;;29.40;38.61;98942.66;5040358;27;124240;-73
2022/07/24 08:45:08;;;;;;;8.40;6.53;;;28.70;62.50;;;29.48;38.73;98937.66;5025620;27;113239;-73
2022/07/24 08:47:36;;;;;;;9.33;7.70;;;28.80;62.40;;;29.56;38.12;98932.59;5048447;27;114103;-71
2022/07/24 08:50:03;;;;;;;10.10;6.63;;;28.90;61.90;;;29.63;37.91;98932.44;5040417;27;124498;-74
2022/07/24 08:52:31;;;;;;;10.60;7.10;;;29.00;61.60;;;29.66;37.46;98931.59;5043796;27;123614;-72
2022/07/24 08:54:57;;;;;;;9.03;6.80;;;29.00;60.80;;;29.67;37.64;98934.00;5039669;27;114241;-72
2022/07/24 08:57:24;;;;;;;7.70;6.97;;;29.00;60.70;;;29.71;36.95;98945.31;5033334;27;114095;-72
2022/07/24 08:59:50;;;;;;;7.57;6.87;;;29.10;60.40;;;29.75;37.18;98931.81;5046668;27;124780;-72
2022/07/24 09:02:17;;;;;;;9.57;7.80;;;29.10;60.00;;;29.79;37.09;98938.22;5048672;27;123870;-72
2022/07/24 09:04:47;;;;;;;8.23;6.50;;;29.20;59.80;;;29.83;36.70;98935.31;5045839;27;114392;-72
2022/07/24 09:07:17;;;;;;;8.43;7.47;;;29.20;59.60;;;29.82;36.23;98934.53;5029811;27;114767;-73
2022/07/24 09:09:58;;;;;;;7.93;7.13;;;29.20;58.50;;;29.79;36.28;98943.13;5040146;27;124326;-73
2022/07/24 09:12:24;;;;;;;7.90;6.90;;;29.20;58.70;;;29.81;36.73;98932.91;5032387;27;123999;-72
2022/07/24 09:14:51;;;;;;;6.97;6.27;;;29.20;58.80;;;29.85;36.21;98935.66;5039317;27;114626;-72
2022/07/24 09:17:20;;;;;;;7.40;6.50;;;29.20;58.60;;;29.90;35.86;98933.13;5030104;27;114192;-72
2022/07/24 09:19:50;;;;;;;9.53;7.10;;;29.30;58.20;;;29.92;35.89;98924.91;5030364;27;124366;-72
2022/07/24 09:22:37;;;;;;;8.27;7.03;;;29.30;57.80;;;29.92;35.85;98922.06;5031498;27;126599;-72
2022/07/24 09:25:10;;;;;;;8.07;7.13;;;29.40;57.70;;;29.99;35.81;98920.31;5027708;27;114391;-72
2022/07/24 09:27:47;;;;;;;12.90;7.90;;;29.40;57.50;;;30.01;35.61;98927.19;5027148;27;114045;-72
2022/07/24 09:30:26;;;;;;;8.13;7.33;;;29.40;57.40;;;30.02;35.85;98919.44;5032818;27;124541;-71
2022/07/24 09:32:59;;;;;;;6.80;6.20;;;29.40;57.10;;;30.01;35.53;98924.34;5029582;27;124375;-72
2022/07/24 09:35:36;;;;;;;8.67;7.37;;;29.50;57.10;;;30.03;36.00;98927.53;5030764;27;113647;-72
2022/07/24 09:38:10;;;;;;;8.37;7.40;;;29.50;57.40;;;30.01;35.01;98926.34;5032551;27;114017;-73
2022/07/24 09:40:43;;;;;;;8.20;7.07;;;29.40;56.00;;;29.98;35.11;98930.91;5029861;27;124660;-72
2022/07/24 09:43:26;;;;;;;11.00;7.30;;;29.40;56.30;;;29.92;35.21;98927.75;5034639;27;124278;-72
2022/07/24 09:46:06;;;;;;;8.50;6.43;;;29.40;56.00;;;29.88;35.53;98920.56;5029476;27;114277;-73
2022/07/24 09:48:38;;;;;;;6.70;5.90;;;29.40;56.40;;;29.89;35.76;98928.66;5038032;27;114102;-72
2022/07/24 09:51:13;;;;;;;8.00;7.03;;;29.40;56.50;;;29.91;35.29;98920.47;5031545;27;124574;-73
2022/07/24 09:53:42;;;;;;;8.70;6.80;;;29.40;56.20;;;29.91;35.14;98914.78;5027705;27;123863;-73
2022/07/24 09:56:15;;;;;;;8.43;7.10;;;29.40;56.10;;;29.93;35.24;98918.00;5030868;27;115367;-73
2022/07/24 09:58:45;;;;;;;8.37;6.23;;;29.40;56.10;;;29.97;35.47;98905.72;5030148;27;114690;-73
2022/07/24 10:01:13;;;;;;;7.20;6.23;;;29.50;56.10;;;30.00;35.73;98917.00;5032692;27;124292;-72
2022/07/24 10:03:44;;;;;;;7.20;6.43;;;29.50;56.30;;;30.04;35.82;98917.75;5030750;27;123960;-72
2022/07/24 10:06:14;;;;;;;8.23;7.17;;;29.50;56.30;;;30.05;35.65;98912.84;5031615;27;113557;-73
2022/07/24 10:08:44;;;;;;;8.80;6.87;;;29.50;56.10;;;30.08;35.24;98909.09;5035983;27;113074;-73